Flight Track Log - Related Links

Times and Time Zones

All times are in EDT time to prevent confusion due to time zone crossing. See the ASQ4908 flight status page for this flight to view local times or setup timezone preferences in your user account.

Time Position Orientation Groundspeed Altitude Reporting Facility
EDT Latitude Longitude Course Direction KTS MPH feet Rate Location/Type
Thu 10:29:07 AM 42.1994 -83.3581 229° Southwest 158 182 1,400  Level Cleveland Center
Thu 10:30:14 AM 42.1583 -83.4208 229° Southwest 247 284 3,400 2,344 Climbing Cleveland Center
Thu 10:31:15 AM 42.1086 -83.4942 228° Southwest 270 311 6,400 3,000 Climbing Cleveland Center
Thu 10:32:16 AM 42.1289 -83.5903 286° West 274 315 9,500 2,400 Climbing Cleveland Center
Thu 10:33:10 AM 42.1706 -83.6706 305° West 305 351 11,000 2,368 Climbing Cleveland Center
Thu 10:34:10 AM 42.2222 -83.7714 305° West 315 362 14,000 2,250 Climbing Cleveland Center
Thu 10:35:10 AM 42.2669 -83.8803 299° West 315 362 15,500 1,600 Climbing Cleveland Center
Thu 10:36:10 AM 42.3028 -84.0114 290° West 343 395 17,200 1,815 Climbing Cleveland Center
Thu 10:37:09 AM 42.3406 -84.1425 291° West 369 425 19,100 1,916 Climbing Cleveland Center
Thu 10:38:09 AM 42.3756 -84.2822 289° West 383 441 21,000 1,884 Climbing Cleveland Center
Thu 10:39:10 AM 42.4131 -84.4167 291° West 389 448 22,900 1,750 Climbing Cleveland Center
Thu 10:40:09 AM 42.4414 -84.5647 285° West 394 453 24,500 1,444 Climbing Cleveland Center
Thu 10:41:23 AM 42.4414 -84.7417 270° West 400 460 26,100 1,279 Climbing Chicago Center
Thu 10:42:25 AM 42.4461 -84.8964 272° West 410 472 27,400 1,161 Climbing Chicago Center
Thu 10:43:27 AM 42.4486 -85.0525 271° West 414 476 28,500 1,016 Climbing Chicago Center
Thu 10:44:29 AM 42.4519 -85.2100 272° West 419 482 29,500 726 Climbing Chicago Center
Thu 10:45:31 AM 42.4550 -85.3708 272° West 425 489 30,000  Climbing Chicago Center
Thu 10:46:32 AM 42.4578 -85.5339 271° West 431 496 29,500 -927 Descending Chicago Center
Thu 10:47:34 AM 42.4828 -85.6939 282° West 435 501 28,100 -726 Descending Chicago Center
Thu 10:48:36 AM 42.5211 -85.8828 285° West 433 498 28,000 -48 Descending Chicago Center
Thu 10:49:38 AM 42.5511 -86.0386 285° West 427 491 28,000  Level Chicago Center
Thu 10:50:40 AM 42.5814 -86.1967 285° West 431 496 28,000  Level Chicago Center
Thu 10:51:42 AM 42.6111 -86.3506 285° West 422 486 28,000  Level Chicago Center
Thu 10:52:43 AM 42.6397 -86.5053 284° West 421 484 28,000  Level Chicago Center
Thu 10:53:45 AM 42.6700 -86.6617 285° West 427 491 28,000  Level Chicago Center
Thu 10:54:47 AM 42.6978 -86.8164 284° West 422 486 28,000  Level Chicago Center
Thu 10:55:49 AM 42.7261 -86.9692 284° West 414 476 28,000  Level Chicago Center
Thu 10:56:51 AM 42.7611 -87.1544 284° West 420 483 28,000  Level Chicago Center
Thu 10:57:52 AM 42.7886 -87.3092 284° West 421 484 28,000 -1,073 Level Chicago Center
Thu 10:58:54 AM 42.8183 -87.4639 285° West 427 491 25,800 -1,887 Descending Chicago Center
Thu 10:59:56 AM 42.8467 -87.6192 284° West 423 487 24,100 -1,161 Descending Chicago Center
Thu 11:00:58 AM 42.8750 -87.7775 284° West 427 491 23,400 -1,306 Descending Chicago Center
Thu 11:02:00 AM 42.9017 -87.9300 283° West 418 481 21,400 -2,146 Descending Chicago Center
Thu 11:03:01 AM 42.9325 -88.1111 283° West 419 482 19,000 -2,146 Descending Chicago Center
Thu 11:04:03 AM 42.9586 -88.2622 283° West 408 470 17,000 -1,935 Descending Chicago Center
Thu 11:05:05 AM 42.9833 -88.4056 283° West 390 449 15,000 -1,452 Descending Chicago Center
Thu 11:06:07 AM 43.0078 -88.5478 283° West 384 442 14,000 -1,122 Descending Chicago Center
Thu 11:07:08 AM 43.0333 -88.6908 284° West 385 443 12,700 -1,512 Descending Chicago Center
Thu 11:08:10 AM 43.0744 -88.8233 293° West 373 429 10,900 -1,597 Descending Chicago Center
Thu 11:09:12 AM 43.1119 -88.9294 296° West 312 359 9,400 -1,839 Descending Chicago Center
Thu 11:10:14 AM 43.1475 -89.0281 296° West 290 334 7,100 -2,146 Descending Chicago Center
Thu 11:11:15 AM 43.2061 -89.1161 312° West 285 328 5,000 -1,317 Descending Chicago Center
Thu 11:12:17 AM 43.2769 -89.1572 337° Northwest 279 321 4,400 -677 Descending Chicago Center
Thu 11:13:19 AM 43.3275 -89.2228 317° Northwest 276 318 3,600 -677 Descending Chicago Center
Thu 11:14:21 AM 43.2992 -89.3047 245° Southwest 260 299 3,000 -390 Descending Chicago Center
Thu 11:15:22 AM 43.2442 -89.3342 201° Southwest 228 262 2,800 -488 Descending Chicago Center
Thu 11:16:24 AM 43.2006 -89.3400 186° South 185 213 2,000 -823 Descending Chicago Center
Thu 11:17:26 AM 43.1592 -89.3408 181° South 145 167 1,100 -484 Descending Chicago Center
Thu 11:18:28 AM 43.1247 -89.3417 181° South 142 163 1,000 -97 Descending Chicago Center

Login

Don't have an account? Register now (free) for customized features, flight alerts, and more!